createdAt,value
2022-09-04T00:02:00.702Z,15.80
2022-09-04T00:04:43.909Z,15.80
2022-09-04T00:07:21.891Z,15.70
2022-09-04T00:10:02.861Z,15.70
2022-09-04T00:12:34.793Z,15.60
2022-09-04T00:15:19.414Z,15.60
2022-09-04T00:18:02.418Z,15.50
2022-09-04T00:20:40.386Z,15.50
2022-09-04T00:23:26.637Z,15.40
2022-09-04T00:26:20.911Z,15.40
2022-09-04T00:28:51.597Z,15.40
2022-09-04T00:31:38.822Z,15.40
2022-09-04T00:34:36.201Z,15.20
2022-09-04T00:37:06.762Z,15.20
2022-09-04T00:39:44.648Z,15.20
2022-09-04T00:42:43.333Z,15.10
2022-09-04T00:45:28.115Z,15.10
2022-09-04T00:48:11.560Z,14.90
2022-09-04T00:51:05.671Z,14.90
2022-09-04T00:54:00.876Z,14.90
2022-09-04T00:56:46.125Z,14.80
2022-09-04T00:59:34.307Z,14.70
2022-09-04T01:02:18.197Z,14.70
2022-09-04T01:05:32.212Z,14.60
2022-09-04T01:08:20.312Z,14.60
2022-09-04T01:11:03.842Z,14.50
2022-09-04T01:13:42.440Z,14.50
2022-09-04T01:16:17.483Z,14.50
2022-09-04T01:19:03.038Z,14.60
2022-09-04T01:22:14.831Z,14.60
2022-09-04T01:25:05.661Z,14.60
2022-09-04T01:27:55.794Z,14.60
2022-09-04T01:30:22.997Z,14.60
2022-09-04T01:33:47.116Z,14.50
2022-09-04T01:37:00.844Z,14.70
2022-09-04T01:39:31.794Z,14.70
2022-09-04T01:42:20.593Z,14.70
2022-09-04T01:44:48.481Z,14.60
2022-09-04T01:47:42.498Z,14.60
2022-09-04T01:50:20.058Z,14.60
2022-09-04T01:52:49.521Z,14.60
2022-09-04T01:55:47.675Z,14.40
2022-09-04T01:58:57.250Z,14.40
2022-09-04T02:01:52.084Z,14.40
2022-09-04T02:04:34.617Z,14.30
2022-09-04T02:07:05.508Z,14.30
2022-09-04T02:10:07.315Z,14.30
2022-09-04T02:12:52.073Z,14.20
2022-09-04T02:15:49.994Z,14.20
2022-09-04T02:18:37.755Z,14.20
2022-09-04T02:21:33.794Z,14.10
2022-09-04T02:24:11.871Z,14.00
2022-09-04T02:26:59.340Z,14.00
2022-09-04T02:29:39.130Z,14.00
2022-09-04T02:32:23.333Z,13.90
2022-09-04T02:35:03.312Z,14.00
2022-09-04T02:38:07.570Z,13.90
2022-09-04T02:40:46.446Z,13.80
2022-09-04T02:43:39.677Z,13.90
2022-09-04T02:46:44.919Z,13.90
2022-09-04T02:49:21.833Z,13.90
2022-09-04T02:52:10.299Z,13.90
2022-09-04T02:54:50.609Z,13.80
2022-09-04T02:57:43.891Z,13.80
2022-09-04T03:00:20.908Z,13.80
2022-09-04T03:03:12.231Z,13.80
2022-09-04T03:05:51.150Z,13.70
2022-09-04T03:08:43.279Z,13.60
2022-09-04T03:11:37.251Z,13.60
2022-09-04T03:14:14.792Z,13.50
2022-09-04T03:16:57.243Z,13.50
2022-09-04T03:19:35.049Z,13.50
2022-09-04T03:22:39.529Z,13.50
2022-09-04T03:25:33.428Z,13.50
2022-09-04T03:28:01.575Z,13.50
2022-09-04T03:30:32.000Z,13.50
2022-09-04T03:33:08.256Z,13.40
2022-09-04T03:35:44.543Z,13.40
2022-09-04T03:38:36.908Z,13.30
2022-09-04T03:41:30.289Z,13.30
2022-09-04T03:44:24.853Z,13.30
2022-09-04T03:47:10.074Z,13.20
2022-09-04T03:50:02.974Z,13.20
2022-09-04T03:52:33.043Z,13.20
2022-09-04T03:55:37.215Z,13.20
2022-09-04T03:58:19.118Z,13.20
2022-09-04T04:01:10.624Z,13.30
2022-09-04T04:03:55.613Z,13.30
2022-09-04T04:07:01.589Z,13.20
2022-09-04T04:09:46.983Z,13.30
2022-09-04T04:12:32.635Z,13.20
2022-09-04T04:15:27.815Z,13.20
2022-09-04T04:18:07.318Z,13.20
2022-09-04T04:20:59.460Z,13.30
2022-09-04T04:23:47.182Z,13.30
2022-09-04T04:26:40.719Z,13.30
2022-09-04T04:29:30.269Z,13.30
2022-09-04T04:32:19.608Z,13.30
2022-09-04T04:34:46.228Z,13.20
2022-09-04T04:37:44.480Z,13.20
2022-09-04T04:40:30.149Z,13.30
2022-09-04T04:43:04.277Z,13.30
2022-09-04T04:46:05.837Z,13.30
2022-09-04T04:48:44.526Z,13.30
2022-09-04T04:51:41.955Z,13.30
2022-09-04T04:54:29.859Z,13.30
2022-09-04T04:57:25.459Z,13.30
2022-09-04T05:00:16.093Z,13.30
2022-09-04T05:03:01.437Z,13.30
2022-09-04T05:06:19.475Z,13.40
2022-09-04T05:08:57.908Z,13.30
2022-09-04T05:11:40.205Z,13.30
2022-09-04T05:14:35.471Z,13.30
2022-09-04T05:17:22.853Z,13.30
2022-09-04T05:20:20.395Z,13.30
2022-09-04T05:23:01.893Z,13.30
2022-09-04T05:25:37.871Z,13.30
2022-09-04T05:28:28.481Z,13.30
2022-09-04T05:31:26.103Z,13.30
2022-09-04T05:34:29.124Z,13.30
2022-09-04T05:37:10.725Z,13.30
2022-09-04T05:39:54.803Z,13.40
2022-09-04T05:42:48.729Z,13.50
2022-09-04T05:45:42.617Z,13.70
2022-09-04T05:48:21.434Z,13.80
2022-09-04T05:51:12.696Z,13.90
2022-09-04T05:54:00.968Z,14.00
2022-09-04T05:57:04.221Z,14.10
2022-09-04T05:59:39.585Z,14.20
2022-09-04T06:02:28.938Z,14.30
2022-09-04T06:05:13.032Z,14.30
2022-09-04T06:07:55.016Z,14.10
2022-09-04T06:10:35.598Z,14.00
2022-09-04T06:13:19.495Z,14.10
2022-09-04T06:16:17.715Z,14.10
2022-09-04T06:19:09.910Z,14.10
2022-09-04T06:21:39.335Z,14.70
2022-09-04T06:24:36.012Z,14.90
2022-09-04T06:27:39.442Z,15.20
2022-09-04T06:30:10.285Z,15.30
2022-09-04T06:33:06.106Z,15.40
2022-09-04T06:36:05.595Z,15.80
2022-09-04T06:38:50.914Z,15.80
2022-09-04T06:41:58.168Z,16.00
2022-09-04T06:44:41.395Z,16.30
2022-09-04T06:47:14.592Z,16.60
2022-09-04T06:50:07.609Z,16.80
2022-09-04T06:53:01.034Z,17.10
2022-09-04T06:56:14.537Z,17.50
2022-09-04T06:59:07.063Z,18.00
2022-09-04T07:01:46.588Z,18.70
2022-09-04T07:04:38.647Z,19.30
2022-09-04T07:07:05.302Z,19.60
2022-09-04T07:09:38.513Z,19.70
2022-09-04T07:12:45.963Z,19.80
2022-09-04T07:15:14.718Z,20.10
2022-09-04T07:18:20.322Z,19.90
2022-09-04T07:21:06.605Z,20.00
2022-09-04T07:23:47.628Z,20.00
2022-09-04T07:26:44.953Z,19.90
2022-09-04T07:29:29.667Z,20.20
2022-09-04T07:32:02.489Z,20.50
2022-09-04T07:34:53.299Z,20.70
2022-09-04T07:37:36.358Z,20.70
2022-09-04T07:40:15.980Z,20.90
2022-09-04T07:42:52.276Z,21.00
2022-09-04T07:45:23.710Z,21.40
2022-09-04T07:48:29.346Z,22.00
2022-09-04T07:51:10.068Z,22.10
2022-09-04T07:53:42.927Z,22.90
2022-09-04T07:56:30.007Z,23.20
2022-09-04T07:59:21.255Z,23.10
2022-09-04T08:02:14.404Z,22.80
2022-09-04T08:05:04.141Z,23.20
2022-09-04T08:07:34.034Z,23.40
2022-09-04T08:10:23.901Z,23.70
2022-09-04T08:13:15.054Z,23.70
2022-09-04T08:16:05.708Z,23.50
2022-09-04T08:19:01.526Z,23.70
2022-09-04T08:21:33.503Z,24.30
2022-09-04T08:24:38.223Z,25.10
2022-09-04T08:27:18.878Z,24.50
2022-09-04T08:29:53.712Z,24.30
2022-09-04T08:32:48.124Z,24.40
2022-09-04T08:35:29.084Z,24.30
2022-09-04T08:38:13.788Z,24.90
2022-09-04T08:40:59.237Z,25.10
2022-09-04T08:43:53.795Z,24.90
2022-09-04T08:46:38.342Z,24.70
2022-09-04T08:49:24.071Z,24.40
2022-09-04T08:52:12.736Z,24.60
2022-09-04T08:54:57.715Z,24.50
2022-09-04T08:57:43.279Z,24.30
2022-09-04T09:00:45.024Z,25.00
2022-09-04T09:03:30.750Z,25.20
2022-09-04T09:06:19.413Z,25.50
2022-09-04T09:09:05.026Z,25.30
2022-09-04T09:12:09.063Z,26.00
2022-09-04T09:15:24.944Z,25.40
2022-09-04T09:18:03.215Z,25.10
2022-09-04T09:20:43.688Z,25.30
2022-09-04T09:23:19.707Z,25.80
2022-09-04T09:26:06.221Z,25.80
2022-09-04T09:29:09.621Z,26.00
2022-09-04T09:32:09.771Z,26.00
2022-09-04T09:34:55.346Z,26.40
2022-09-04T09:37:46.889Z,26.30
2022-09-04T09:40:13.600Z,26.50
2022-09-04T09:43:19.035Z,26.50
2022-09-04T09:46:29.715Z,26.70
2022-09-04T09:49:21.545Z,26.70
2022-09-04T09:52:07.115Z,26.60
2022-09-04T09:54:52.533Z,26.80
2022-09-04T09:57:46.376Z,26.80
2022-09-04T10:00:18.661Z,26.70
2022-09-04T10:03:13.985Z,26.50
2022-09-04T10:06:16.044Z,27.00
2022-09-04T10:09:04.985Z,27.40
2022-09-04T10:12:10.724Z,27.50
2022-09-04T10:15:22.493Z,27.40
2022-09-04T10:17:56.725Z,27.40
2022-09-04T10:20:46.222Z,27.60
2022-09-04T10:23:31.029Z,28.20
2022-09-04T10:26:29.194Z,27.60
2022-09-04T10:29:28.983Z,27.00
2022-09-04T10:32:23.430Z,26.90
2022-09-04T10:34:56.275Z,27.40
2022-09-04T10:37:44.721Z,27.80
2022-09-04T10:40:38.421Z,28.10
2022-09-04T10:43:29.415Z,27.90
2022-09-04T10:46:09.688Z,27.80
2022-09-04T10:49:06.211Z,28.10
2022-09-04T10:51:59.741Z,28.00
2022-09-04T10:54:54.147Z,28.20
2022-09-04T10:57:41.739Z,28.40
2022-09-04T11:00:12.041Z,28.30
2022-09-04T11:03:21.252Z,27.80
2022-09-04T11:06:11.022Z,27.10
2022-09-04T11:09:19.060Z,26.90
2022-09-04T11:12:23.483Z,26.70
2022-09-04T11:15:19.535Z,26.20
2022-09-04T11:18:04.995Z,26.20
2022-09-04T11:20:57.096Z,26.60
2022-09-04T11:23:42.488Z,27.30
2022-09-04T11:26:39.257Z,27.10
2022-09-04T11:29:41.229Z,27.00
2022-09-04T11:32:16.934Z,26.70
2022-09-04T11:35:33.692Z,26.90
2022-09-04T11:38:24.945Z,27.00
2022-09-04T11:41:31.728Z,27.30
2022-09-04T11:44:17.498Z,27.20
2022-09-04T11:47:03.326Z,27.40
2022-09-04T11:50:07.807Z,27.00
2022-09-04T11:52:59.145Z,27.00
2022-09-04T11:55:35.770Z,26.90
2022-09-04T11:58:21.136Z,26.90
2022-09-04T12:01:00.392Z,27.40
2022-09-04T12:03:46.468Z,27.60
2022-09-04T12:07:08.998Z,27.10
2022-09-04T12:10:14.767Z,27.30
2022-09-04T12:12:46.194Z,27.40
2022-09-04T12:15:22.289Z,27.40
2022-09-04T12:18:03.732Z,27.50
2022-09-04T12:21:01.699Z,27.80
2022-09-04T12:23:58.077Z,28.50
2022-09-04T12:26:56.009Z,27.70
2022-09-04T12:29:46.805Z,26.90
2022-09-04T12:32:43.000Z,26.70
2022-09-04T12:35:43.887Z,26.50
2022-09-04T12:38:39.549Z,26.50
2022-09-04T12:41:30.913Z,27.00
2022-09-04T12:43:57.494Z,27.20
2022-09-04T12:46:50.187Z,27.10
2022-09-04T12:49:58.704Z,26.70
2022-09-04T12:52:35.304Z,26.60
2022-09-04T12:55:10.852Z,26.60
2022-09-04T12:58:03.114Z,26.70
2022-09-04T13:00:48.504Z,26.70
2022-09-04T13:03:54.185Z,26.50
2022-09-04T13:06:43.821Z,26.50
2022-09-04T13:09:35.453Z,26.40
2022-09-04T13:12:15.610Z,27.00
2022-09-04T13:15:19.358Z,27.20
2022-09-04T13:18:48.688Z,27.50
2022-09-04T13:21:42.820Z,28.20
2022-09-04T13:24:37.512Z,28.30
2022-09-04T13:27:26.615Z,28.50
2022-09-04T13:30:07.701Z,28.20
2022-09-04T13:33:17.117Z,27.40
2022-09-04T13:36:02.951Z,27.30
2022-09-04T13:39:01.954Z,26.90
2022-09-04T13:42:06.065Z,26.70
2022-09-04T13:45:00.587Z,27.40
2022-09-04T13:47:40.592Z,27.40
2022-09-04T13:50:23.682Z,27.40
2022-09-04T13:52:55.937Z,27.10
2022-09-04T13:55:26.416Z,27.20
2022-09-04T13:58:13.770Z,27.00
2022-09-04T14:00:52.213Z,27.10
2022-09-04T14:03:40.493Z,27.30
2022-09-04T14:06:11.121Z,27.20
2022-09-04T14:08:39.748Z,27.20
2022-09-04T14:11:25.874Z,28.10
2022-09-04T14:14:18.519Z,28.30
2022-09-04T14:16:45.437Z,28.20
2022-09-04T14:19:41.102Z,28.60
2022-09-04T14:22:35.844Z,28.60
2022-09-04T14:25:22.374Z,29.10
2022-09-04T14:27:54.866Z,29.70
2022-09-04T14:30:23.389Z,29.10
2022-09-04T14:33:07.623Z,29.50
2022-09-04T14:35:58.261Z,29.60
2022-09-04T14:42:07.531Z,29.20
2022-09-04T14:44:42.549Z,28.20
2022-09-04T14:47:47.367Z,27.90
2022-09-04T14:50:17.299Z,27.60
2022-09-04T14:52:48.401Z,27.10
2022-09-04T14:55:16.886Z,26.90
2022-09-04T14:57:50.966Z,27.00
2022-09-04T15:00:20.088Z,26.90
2022-09-04T15:03:17.558Z,27.10
2022-09-04T15:05:56.701Z,27.20
2022-09-04T15:08:40.360Z,26.90
2022-09-04T15:11:09.610Z,26.80
2022-09-04T15:13:52.774Z,26.90
2022-09-04T15:16:50.694Z,27.00
2022-09-04T15:19:46.362Z,27.00
2022-09-04T15:22:29.616Z,26.90
2022-09-04T15:25:09.549Z,26.70
2022-09-04T15:28:05.058Z,26.80
2022-09-04T15:30:42.556Z,26.60
2022-09-04T15:33:19.264Z,26.50
2022-09-04T15:36:06.704Z,26.40
2022-09-04T15:38:34.790Z,26.40
2022-09-04T15:41:17.433Z,26.30
2022-09-04T15:43:49.806Z,26.50
2022-09-04T15:46:47.720Z,26.60
2022-09-04T15:49:35.786Z,26.70
2022-09-04T15:52:30.718Z,26.80
2022-09-04T15:55:22.769Z,27.20
2022-09-04T15:58:02.769Z,28.30
2022-09-04T16:00:32.009Z,28.10
2022-09-04T16:03:26.226Z,27.90
2022-09-04T16:06:11.694Z,28.00
2022-09-04T16:08:45.333Z,27.80
2022-09-04T16:11:26.338Z,28.00
2022-09-04T16:14:05.742Z,28.20
2022-09-04T16:16:49.393Z,28.10
2022-09-04T16:19:29.926Z,27.80
2022-09-04T16:22:22.443Z,27.80
2022-09-04T16:24:56.074Z,27.60
2022-09-04T16:27:28.652Z,27.50
2022-09-04T16:30:04.475Z,27.30
2022-09-04T16:32:35.853Z,27.10
2022-09-04T16:35:05.659Z,26.80
2022-09-04T16:37:51.380Z,26.60
2022-09-04T16:40:18.139Z,26.60
2022-09-04T16:43:19.721Z,26.40
2022-09-04T16:45:49.744Z,26.30
2022-09-04T16:48:34.674Z,26.20
2022-09-04T16:51:39.684Z,26.20
2022-09-04T16:54:13.391Z,26.10
2022-09-04T16:56:49.707Z,26.00
2022-09-04T16:59:29.673Z,25.90
2022-09-04T17:02:10.610Z,25.80
2022-09-04T17:04:43.469Z,25.60
2022-09-04T17:07:22.824Z,25.60
2022-09-04T17:10:22.869Z,25.60
2022-09-04T17:13:29.011Z,25.60
2022-09-04T17:16:14.219Z,25.40
2022-09-04T17:18:47.831Z,25.40
2022-09-04T17:29:02.391Z,25.30
2022-09-04T17:29:17.543Z,25.20
2022-09-04T17:29:19.625Z,25.30
2022-09-04T17:31:14.430Z,25.10
2022-09-04T17:40:33.634Z,25.00
2022-09-04T17:40:52.230Z,24.90
2022-09-04T17:41:31.303Z,24.80
2022-09-04T17:43:14.813Z,24.70
2022-09-04T17:45:59.388Z,24.60
2022-09-04T17:48:53.803Z,24.50
2022-09-04T17:51:27.014Z,24.50
2022-09-04T17:54:11.601Z,24.30
2022-09-04T17:56:42.192Z,24.30
2022-09-04T17:59:25.549Z,24.10
2022-09-04T18:02:13.722Z,24.00
2022-09-04T18:04:54.481Z,23.80
2022-09-04T18:08:07.694Z,23.80
2022-09-04T18:10:37.175Z,23.70
2022-09-04T18:13:37.244Z,23.60
2022-09-04T18:16:26.914Z,23.50
2022-09-04T18:18:58.691Z,23.30
2022-09-04T18:21:27.310Z,23.10
2022-09-04T18:23:56.948Z,23.20
2022-09-04T18:26:40.412Z,23.20
2022-09-04T18:30:57.184Z,23.10
2022-09-04T18:37:20.596Z,23.00
2022-09-04T18:37:26.031Z,23.00
2022-09-04T18:39:09.307Z,22.80
2022-09-04T18:49:52.761Z,22.70
2022-09-04T18:50:30.452Z,22.50
2022-09-04T18:50:43.338Z,22.60
2022-09-04T18:51:26.951Z,22.40
2022-09-04T18:54:06.362Z,22.40
2022-09-04T18:56:35.850Z,22.40
2022-09-04T18:59:19.091Z,22.30
2022-09-04T19:01:50.900Z,22.30
2022-09-04T19:04:48.586Z,22.30
2022-09-04T19:07:29.876Z,22.20
2022-09-04T19:10:26.036Z,22.00
2022-09-04T19:12:53.759Z,22.10
2022-09-04T19:15:36.138Z,22.00
2022-09-04T19:18:34.015Z,21.90
2022-09-04T19:21:10.705Z,21.90
2022-09-04T19:23:51.385Z,21.90
2022-09-04T19:26:27.061Z,21.80
2022-09-04T19:29:19.300Z,21.60
2022-09-04T19:32:13.823Z,21.60
2022-09-04T19:34:48.518Z,21.60
2022-09-04T19:42:26.890Z,21.50
2022-09-04T19:46:01.523Z,21.40
2022-09-04T19:46:17.180Z,21.40
2022-09-04T19:46:30.869Z,21.40
2022-09-04T19:50:34.091Z,21.40
2022-09-04T19:53:23.203Z,21.30
2022-09-04T19:55:23.659Z,21.30
2022-09-04T19:58:07.741Z,21.20
2022-09-04T20:00:45.239Z,21.10
2022-09-04T20:03:29.724Z,21.20
2022-09-04T20:06:20.168Z,21.20
2022-09-04T20:09:20.283Z,21.20
2022-09-04T20:11:56.809Z,21.10
2022-09-04T20:14:34.570Z,21.00
2022-09-04T20:17:08.423Z,20.90
2022-09-04T20:19:48.706Z,20.90
2022-09-04T20:22:25.264Z,20.90
2022-09-04T20:25:13.322Z,20.80
2022-09-04T20:28:00.152Z,20.80
2022-09-04T20:30:29.848Z,20.80
2022-09-04T20:33:11.167Z,20.80
2022-09-04T20:35:43.128Z,20.70
2022-09-04T20:38:41.427Z,20.80
2022-09-04T20:41:17.123Z,20.70
2022-09-04T20:43:58.821Z,20.70
2022-09-04T20:52:42.941Z,20.80
2022-09-04T20:52:55.661Z,20.80
2022-09-04T20:53:05.539Z,20.70
2022-09-04T20:55:46.593Z,20.70
2022-09-04T21:03:09.940Z,20.70
2022-09-04T21:03:17.138Z,20.60
2022-09-04T21:05:23.076Z,20.50
2022-09-04T21:11:04.342Z,20.60
2022-09-04T21:23:01.869Z,20.50
2022-09-04T21:29:12.028Z,20.30
2022-09-04T21:32:02.180Z,20.20
2022-09-04T21:34:31.945Z,20.10
2022-09-04T21:37:08.292Z,20.10
2022-09-04T21:39:58.121Z,20.00
2022-09-04T21:42:43.230Z,20.00
2022-09-04T21:45:19.068Z,20.00
2022-09-04T21:47:56.222Z,20.00
2022-09-04T21:50:40.786Z,20.00
2022-09-04T21:54:01.868Z,20.00
2022-09-04T22:02:25.877Z,19.90
2022-09-04T22:02:37.502Z,19.90
2022-09-04T22:03:31.504Z,19.80
2022-09-04T22:06:13.990Z,19.80
2022-09-04T22:13:34.540Z,19.70
2022-09-04T22:13:42.620Z,19.60
2022-09-04T22:15:09.557Z,19.70
2022-09-04T22:18:31.434Z,19.60
2022-09-04T22:21:07.351Z,19.70
2022-09-04T22:23:36.756Z,19.60
2022-09-04T22:26:46.200Z,19.70
2022-09-04T22:29:40.830Z,19.70
2022-09-04T22:32:24.071Z,19.70
2022-09-04T22:35:17.177Z,19.70
2022-09-04T22:38:14.770Z,19.70
2022-09-04T22:41:23.306Z,19.60
2022-09-04T22:44:11.818Z,19.60
2022-09-04T22:46:57.551Z,19.60
2022-09-04T22:49:50.025Z,19.60
2022-09-04T22:52:50.615Z,19.50
2022-09-04T22:56:23.254Z,19.50
2022-09-04T22:59:26.302Z,19.50
2022-09-04T23:02:13.501Z,19.50
2022-09-04T23:05:10.117Z,19.50
2022-09-04T23:13:06.087Z,19.50
2022-09-04T23:13:46.187Z,19.50
2022-09-04T23:14:30.464Z,19.50
2022-09-04T23:17:18.308Z,19.50
2022-09-04T23:26:32.481Z,19.50
2022-09-04T23:26:45.163Z,19.50
2022-09-04T23:26:47.561Z,19.60
2022-09-04T23:29:11.737Z,19.40
2022-09-04T23:32:09.940Z,19.40
2022-09-04T23:35:14.464Z,19.40
2022-09-04T23:37:54.576Z,19.30
2022-09-04T23:40:42.425Z,19.30
2022-09-04T23:43:27.323Z,19.30
2022-09-04T23:46:08.142Z,19.20
2022-09-04T23:48:44.604Z,19.20
2022-09-04T23:51:35.538Z,19.20
2022-09-04T23:54:29.524Z,19.20
2022-09-04T23:57:26.751Z,19.20
2022-09-04T23:59:59.605Z,19.10
